sensor_id;sensor_type;location;lat;lon;timestamp;P1;durP1;ratioP1;P2;durP2;ratioP2
59390;SDS011;53405;57.012;40.984;2023-01-28T00:00:18;4.38;;;1.85;;
59390;SDS011;53405;57.012;40.984;2023-01-28T00:03:06;4.25;;;1.85;;
59390;SDS011;53405;57.012;40.984;2023-01-28T00:06:00;3.85;;;1.75;;
59390;SDS011;53405;57.012;40.984;2023-01-28T00:08:49;5.32;;;1.90;;
59390;SDS011;53405;57.012;40.984;2023-01-28T00:11:37;4.78;;;1.80;;
59390;SDS011;53405;57.012;40.984;2023-01-28T00:14:25;4.22;;;1.90;;
59390;SDS011;53405;57.012;40.984;2023-01-28T00:17:12;4.05;;;1.90;;
59390;SDS011;53405;57.012;40.984;2023-01-28T00:20:02;4.55;;;1.90;;
59390;SDS011;53405;57.012;40.984;2023-01-28T00:22:50;4.43;;;1.88;;
59390;SDS011;53405;57.012;40.984;2023-01-28T00:25:38;4.15;;;1.60;;
59390;SDS011;53405;57.012;40.984;2023-01-28T00:28:25;4.55;;;1.60;;
59390;SDS011;53405;57.012;40.984;2023-01-28T00:31:17;4.07;;;1.70;;
59390;SDS011;53405;57.012;40.984;2023-01-28T00:34:07;3.38;;;1.30;;
59390;SDS011;53405;57.012;40.984;2023-01-28T00:36:59;3.47;;;1.38;;
59390;SDS011;53405;57.012;40.984;2023-01-28T00:39:47;1.90;;;1.10;;
59390;SDS011;53405;57.012;40.984;2023-01-28T00:42:35;2.90;;;1.38;;
59390;SDS011;53405;57.012;40.984;2023-01-28T00:45:23;2.50;;;1.05;;
59390;SDS011;53405;57.012;40.984;2023-01-28T00:48:10;1.27;;;0.85;;
59390;SDS011;53405;57.012;40.984;2023-01-28T00:50:58;2.80;;;1.20;;
59390;SDS011;53405;57.012;40.984;2023-01-28T00:53:46;3.30;;;1.00;;
59390;SDS011;53405;57.012;40.984;2023-01-28T00:56:34;2.35;;;1.00;;
59390;SDS011;53405;57.012;40.984;2023-01-28T00:59:24;3.03;;;1.10;;
59390;SDS011;53405;57.012;40.984;2023-01-28T01:02:13;2.17;;;0.77;;
59390;SDS011;53405;57.012;40.984;2023-01-28T01:05:00;2.80;;;1.20;;
59390;SDS011;53405;57.012;40.984;2023-01-28T01:07:49;2.63;;;1.20;;
59390;SDS011;53405;57.012;40.984;2023-01-28T01:10:37;1.70;;;0.98;;
59390;SDS011;53405;57.012;40.984;2023-01-28T01:13:25;2.50;;;1.20;;
59390;SDS011;53405;57.012;40.984;2023-01-28T01:16:14;1.83;;;1.08;;
59390;SDS011;53405;57.012;40.984;2023-01-28T01:19:02;2.67;;;1.10;;
59390;SDS011;53405;57.012;40.984;2023-01-28T01:21:50;2.42;;;1.40;;
59390;SDS011;53405;57.012;40.984;2023-01-28T01:24:38;3.80;;;1.30;;
59390;SDS011;53405;57.012;40.984;2023-01-28T01:27:25;1.85;;;1.20;;
59390;SDS011;53405;57.012;40.984;2023-01-28T01:30:13;2.00;;;1.00;;
59390;SDS011;53405;57.012;40.984;2023-01-28T01:33:02;2.47;;;0.90;;
59390;SDS011;53405;57.012;40.984;2023-01-28T01:35:54;2.63;;;1.27;;
59390;SDS011;53405;57.012;40.984;2023-01-28T01:38:42;3.05;;;0.98;;
59390;SDS011;53405;57.012;40.984;2023-01-28T01:41:30;2.50;;;1.23;;
59390;SDS011;53405;57.012;40.984;2023-01-28T01:50:39;1.60;;;0.98;;
59390;SDS011;53405;57.012;40.984;2023-01-28T01:53:32;2.40;;;1.20;;
59390;SDS011;53405;57.012;40.984;2023-01-28T01:56:20;3.33;;;1.20;;
59390;SDS011;53405;57.012;40.984;2023-01-28T01:59:12;2.45;;;1.42;;
59390;SDS011;53405;57.012;40.984;2023-01-28T02:02:04;2.50;;;1.30;;
59390;SDS011;53405;57.012;40.984;2023-01-28T02:04:56;3.60;;;1.40;;
59390;SDS011;53405;57.012;40.984;2023-01-28T02:07:44;3.28;;;1.50;;
59390;SDS011;53405;57.012;40.984;2023-01-28T02:13:21;4.55;;;1.70;;
59390;SDS011;53405;57.012;40.984;2023-01-28T02:16:14;7.10;;;2.05;;
59390;SDS011;53405;57.012;40.984;2023-01-28T02:19:06;5.85;;;1.98;;
59390;SDS011;53405;57.012;40.984;2023-01-28T02:31:07;5.35;;;1.70;;
59390;SDS011;53405;57.012;40.984;2023-01-28T02:37:11;5.72;;;2.03;;
59390;SDS011;53405;57.012;40.984;2023-01-28T02:40:05;3.88;;;1.60;;
59390;SDS011;53405;57.012;40.984;2023-01-28T02:42:57;3.28;;;1.60;;
59390;SDS011;53405;57.012;40.984;2023-01-28T02:45:47;3.15;;;1.40;;
59390;SDS011;53405;57.012;40.984;2023-01-28T02:48:53;5.22;;;1.98;;
59390;SDS011;53405;57.012;40.984;2023-01-28T03:00:24;4.32;;;2.15;;
59390;SDS011;53405;57.012;40.984;2023-01-28T03:06:13;3.67;;;1.40;;
59390;SDS011;53405;57.012;40.984;2023-01-28T03:09:05;3.08;;;1.38;;
59390;SDS011;53405;57.012;40.984;2023-01-28T03:12:17;3.13;;;1.60;;
59390;SDS011;53405;57.012;40.984;2023-01-28T03:15:40;3.83;;;1.50;;
59390;SDS011;53405;57.012;40.984;2023-01-28T03:18:51;3.22;;;1.70;;
59390;SDS011;53405;57.012;40.984;2023-01-28T03:22:01;6.50;;;1.90;;
59390;SDS011;53405;57.012;40.984;2023-01-28T03:25:09;4.07;;;1.60;;
59390;SDS011;53405;57.012;40.984;2023-01-28T03:28:22;3.38;;;1.40;;
59390;SDS011;53405;57.012;40.984;2023-01-28T03:31:29;4.60;;;2.63;;
59390;SDS011;53405;57.012;40.984;2023-01-28T03:34:37;6.22;;;2.53;;
59390;SDS011;53405;57.012;40.984;2023-01-28T03:37:44;2.90;;;1.48;;
59390;SDS011;53405;57.012;40.984;2023-01-28T03:40:47;2.72;;;1.20;;
59390;SDS011;53405;57.012;40.984;2023-01-28T03:43:41;4.60;;;1.30;;
59390;SDS011;53405;57.012;40.984;2023-01-28T03:46:31;2.00;;;1.50;;
59390;SDS011;53405;57.012;40.984;2023-01-28T03:49:19;5.95;;;1.77;;
59390;SDS011;53405;57.012;40.984;2023-01-28T03:52:07;4.95;;;1.80;;
59390;SDS011;53405;57.012;40.984;2023-01-28T03:54:55;2.80;;;1.40;;
59390;SDS011;53405;57.012;40.984;2023-01-28T03:57:44;4.80;;;1.40;;
59390;SDS011;53405;57.012;40.984;2023-01-28T04:00:31;2.45;;;1.23;;
59390;SDS011;53405;57.012;40.984;2023-01-28T04:03:20;5.13;;;1.73;;
59390;SDS011;53405;57.012;40.984;2023-01-28T04:06:20;2.80;;;1.48;;
59390;SDS011;53405;57.012;40.984;2023-01-28T04:09:16;3.90;;;1.60;;
59390;SDS011;53405;57.012;40.984;2023-01-28T04:12:13;4.38;;;1.90;;
59390;SDS011;53405;57.012;40.984;2023-01-28T04:15:07;5.78;;;1.33;;
59390;SDS011;53405;57.012;40.984;2023-01-28T04:18:03;2.42;;;1.00;;
59390;SDS011;53405;57.012;40.984;2023-01-28T04:20:53;3.60;;;1.25;;
59390;SDS011;53405;57.012;40.984;2023-01-28T04:23:41;3.15;;;1.40;;
59390;SDS011;53405;57.012;40.984;2023-01-28T04:26:31;4.70;;;1.70;;
59390;SDS011;53405;57.012;40.984;2023-01-28T04:29:21;3.30;;;1.52;;
59390;SDS011;53405;57.012;40.984;2023-01-28T04:32:10;5.43;;;2.33;;
59390;SDS011;53405;57.012;40.984;2023-01-28T04:35:14;6.38;;;2.25;;
59390;SDS011;53405;57.012;40.984;2023-01-28T04:38:21;6.03;;;2.17;;
59390;SDS011;53405;57.012;40.984;2023-01-28T04:41:25;4.38;;;1.58;;
59390;SDS011;53405;57.012;40.984;2023-01-28T04:44:17;3.58;;;1.75;;
59390;SDS011;53405;57.012;40.984;2023-01-28T04:47:34;4.55;;;1.80;;
59390;SDS011;53405;57.012;40.984;2023-01-28T04:50:35;3.40;;;1.75;;
59390;SDS011;53405;57.012;40.984;2023-01-28T04:53:52;4.55;;;1.95;;
59390;SDS011;53405;57.012;40.984;2023-01-28T04:56:49;4.68;;;2.13;;
59390;SDS011;53405;57.012;40.984;2023-01-28T04:59:38;3.63;;;1.70;;
59390;SDS011;53405;57.012;40.984;2023-01-28T05:02:26;6.30;;;1.80;;
59390;SDS011;53405;57.012;40.984;2023-01-28T05:05:14;2.92;;;1.35;;
59390;SDS011;53405;57.012;40.984;2023-01-28T05:08:17;3.08;;;1.23;;
59390;SDS011;53405;57.012;40.984;2023-01-28T05:11:06;4.05;;;1.90;;
59390;SDS011;53405;57.012;40.984;2023-01-28T05:13:54;6.85;;;2.10;;
59390;SDS011;53405;57.012;40.984;2023-01-28T05:16:42;5.32;;;1.85;;
59390;SDS011;53405;57.012;40.984;2023-01-28T05:19:30;3.58;;;1.80;;
59390;SDS011;53405;57.012;40.984;2023-01-28T05:22:19;3.15;;;1.75;;
59390;SDS011;53405;57.012;40.984;2023-01-28T05:25:25;3.85;;;1.55;;
59390;SDS011;53405;57.012;40.984;2023-01-28T05:28:16;4.25;;;1.70;;
59390;SDS011;53405;57.012;40.984;2023-01-28T05:31:04;4.82;;;1.70;;
59390;SDS011;53405;57.012;40.984;2023-01-28T05:33:53;4.53;;;1.83;;
59390;SDS011;53405;57.012;40.984;2023-01-28T05:36:41;4.78;;;2.00;;
59390;SDS011;53405;57.012;40.984;2023-01-28T05:39:47;4.25;;;1.90;;
59390;SDS011;53405;57.012;40.984;2023-01-28T05:42:34;3.05;;;1.70;;
59390;SDS011;53405;57.012;40.984;2023-01-28T05:45:42;3.47;;;1.83;;
59390;SDS011;53405;57.012;40.984;2023-01-28T05:48:39;2.78;;;1.52;;
59390;SDS011;53405;57.012;40.984;2023-01-28T05:51:45;5.07;;;1.80;;
59390;SDS011;53405;57.012;40.984;2023-01-28T05:54:38;5.60;;;1.98;;
59390;SDS011;53405;57.012;40.984;2023-01-28T05:57:26;4.53;;;1.83;;
59390;SDS011;53405;57.012;40.984;2023-01-28T06:00:14;3.20;;;2.10;;
59390;SDS011;53405;57.012;40.984;2023-01-28T06:03:03;4.38;;;1.98;;
59390;SDS011;53405;57.012;40.984;2023-01-28T06:05:54;4.53;;;1.98;;
59390;SDS011;53405;57.012;40.984;2023-01-28T06:08:41;3.72;;;1.80;;
59390;SDS011;53405;57.012;40.984;2023-01-28T06:11:30;3.00;;;1.80;;
59390;SDS011;53405;57.012;40.984;2023-01-28T06:14:21;4.60;;;2.30;;
59390;SDS011;53405;57.012;40.984;2023-01-28T06:17:29;4.25;;;2.05;;
59390;SDS011;53405;57.012;40.984;2023-01-28T06:20:33;4.10;;;2.30;;
59390;SDS011;53405;57.012;40.984;2023-01-28T06:23:21;4.78;;;2.10;;
59390;SDS011;53405;57.012;40.984;2023-01-28T06:26:08;3.83;;;2.00;;
59390;SDS011;53405;57.012;40.984;2023-01-28T06:28:59;3.72;;;2.05;;
59390;SDS011;53405;57.012;40.984;2023-01-28T06:31:47;4.63;;;2.40;;
59390;SDS011;53405;57.012;40.984;2023-01-28T06:34:35;4.53;;;1.98;;
59390;SDS011;53405;57.012;40.984;2023-01-28T06:37:22;5.65;;;2.92;;
59390;SDS011;53405;57.012;40.984;2023-01-28T06:40:12;6.95;;;2.67;;
59390;SDS011;53405;57.012;40.984;2023-01-28T06:42:59;6.70;;;2.70;;
59390;SDS011;53405;57.012;40.984;2023-01-28T06:45:47;7.53;;;2.95;;
59390;SDS011;53405;57.012;40.984;2023-01-28T06:48:35;7.93;;;3.20;;
59390;SDS011;53405;57.012;40.984;2023-01-28T06:51:22;8.45;;;3.55;;
59390;SDS011;53405;57.012;40.984;2023-01-28T06:54:10;5.45;;;2.70;;
59390;SDS011;53405;57.012;40.984;2023-01-28T06:56:57;4.85;;;2.70;;
59390;SDS011;53405;57.012;40.984;2023-01-28T06:59:45;7.07;;;2.85;;
59390;SDS011;53405;57.012;40.984;2023-01-28T07:02:33;6.70;;;2.83;;
59390;SDS011;53405;57.012;40.984;2023-01-28T07:08:10;5.03;;;2.45;;
59390;SDS011;53405;57.012;40.984;2023-01-28T07:10:58;8.77;;;2.70;;
59390;SDS011;53405;57.012;40.984;2023-01-28T07:13:46;5.97;;;2.97;;
59390;SDS011;53405;57.012;40.984;2023-01-28T07:16:35;5.63;;;2.80;;
59390;SDS011;53405;57.012;40.984;2023-01-28T07:19:22;6.15;;;2.95;;
59390;SDS011;53405;57.012;40.984;2023-01-28T07:22:10;5.57;;;3.15;;
59390;SDS011;53405;57.012;40.984;2023-01-28T07:24:59;5.03;;;2.65;;
59390;SDS011;53405;57.012;40.984;2023-01-28T07:27:50;4.82;;;2.28;;
59390;SDS011;53405;57.012;40.984;2023-01-28T07:33:26;5.60;;;2.05;;
59390;SDS011;53405;57.012;40.984;2023-01-28T07:36:13;4.20;;;2.15;;
59390;SDS011;53405;57.012;40.984;2023-01-28T07:39:01;2.58;;;1.50;;
59390;SDS011;53405;57.012;40.984;2023-01-28T07:41:48;8.20;;;2.35;;
59390;SDS011;53405;57.012;40.984;2023-01-28T07:44:55;3.58;;;1.90;;
59390;SDS011;53405;57.012;40.984;2023-01-28T07:47:43;4.78;;;2.45;;
59390;SDS011;53405;57.012;40.984;2023-01-28T07:50:32;5.60;;;2.40;;
59390;SDS011;53405;57.012;40.984;2023-01-28T07:53:22;4.18;;;2.42;;
59390;SDS011;53405;57.012;40.984;2023-01-28T07:56:09;5.85;;;2.72;;
59390;SDS011;53405;57.012;40.984;2023-01-28T07:58:57;7.20;;;3.00;;
59390;SDS011;53405;57.012;40.984;2023-01-28T08:01:44;6.72;;;3.17;;
59390;SDS011;53405;57.012;40.984;2023-01-28T08:04:32;5.55;;;2.83;;
59390;SDS011;53405;57.012;40.984;2023-01-28T08:07:19;6.78;;;3.47;;
59390;SDS011;53405;57.012;40.984;2023-01-28T08:10:07;8.05;;;3.63;;
59390;SDS011;53405;57.012;40.984;2023-01-28T08:12:56;6.70;;;3.30;;
59390;SDS011;53405;57.012;40.984;2023-01-28T08:15:47;9.50;;;4.40;;
59390;SDS011;53405;57.012;40.984;2023-01-28T08:18:35;6.95;;;3.97;;
59390;SDS011;53405;57.012;40.984;2023-01-28T08:21:22;7.22;;;4.05;;
59390;SDS011;53405;57.012;40.984;2023-01-28T08:24:10;10.65;;;4.32;;
59390;SDS011;53405;57.012;40.984;2023-01-28T08:26:58;6.60;;;3.50;;
59390;SDS011;53405;57.012;40.984;2023-01-28T08:29:45;10.93;;;5.18;;
59390;SDS011;53405;57.012;40.984;2023-01-28T08:32:33;9.90;;;5.00;;
59390;SDS011;53405;57.012;40.984;2023-01-28T08:35:21;6.70;;;3.78;;
59390;SDS011;53405;57.012;40.984;2023-01-28T08:38:09;8.27;;;4.40;;
59390;SDS011;53405;57.012;40.984;2023-01-28T08:40:58;8.85;;;4.63;;
59390;SDS011;53405;57.012;40.984;2023-01-28T08:43:46;8.68;;;4.70;;
59390;SDS011;53405;57.012;40.984;2023-01-28T08:46:34;8.85;;;4.68;;
59390;SDS011;53405;57.012;40.984;2023-01-28T08:49:22;7.53;;;4.25;;
59390;SDS011;53405;57.012;40.984;2023-01-28T08:52:09;8.00;;;4.18;;
59390;SDS011;53405;57.012;40.984;2023-01-28T08:54:57;7.05;;;4.60;;
59390;SDS011;53405;57.012;40.984;2023-01-28T08:57:44;9.48;;;6.00;;
59390;SDS011;53405;57.012;40.984;2023-01-28T09:00:32;24.45;;;11.70;;
59390;SDS011;53405;57.012;40.984;2023-01-28T09:03:21;13.27;;;6.70;;
59390;SDS011;53405;57.012;40.984;2023-01-28T09:06:09;9.43;;;5.13;;
59390;SDS011;53405;57.012;40.984;2023-01-28T09:08:57;10.35;;;5.72;;
59390;SDS011;53405;57.012;40.984;2023-01-28T09:11:45;8.48;;;5.25;;
59390;SDS011;53405;57.012;40.984;2023-01-28T09:14:32;10.73;;;5.90;;
59390;SDS011;53405;57.012;40.984;2023-01-28T09:17:20;12.23;;;6.20;;
59390;SDS011;53405;57.012;40.984;2023-01-28T09:20:08;10.00;;;6.13;;
59390;SDS011;53405;57.012;40.984;2023-01-28T09:23:00;10.55;;;6.28;;
59390;SDS011;53405;57.012;40.984;2023-01-28T09:25:50;9.45;;;5.95;;
59390;SDS011;53405;57.012;40.984;2023-01-28T09:28:51;9.95;;;6.28;;
59390;SDS011;53405;57.012;40.984;2023-01-28T09:31:39;11.30;;;6.47;;
59390;SDS011;53405;57.012;40.984;2023-01-28T09:34:28;10.10;;;5.00;;
59390;SDS011;53405;57.012;40.984;2023-01-28T09:37:15;10.57;;;6.00;;
59390;SDS011;53405;57.012;40.984;2023-01-28T09:40:04;9.23;;;4.83;;
59390;SDS011;53405;57.012;40.984;2023-01-28T09:42:56;9.95;;;5.90;;
59390;SDS011;53405;57.012;40.984;2023-01-28T09:45:57;11.75;;;6.85;;
59390;SDS011;53405;57.012;40.984;2023-01-28T09:48:49;12.85;;;6.32;;
59390;SDS011;53405;57.012;40.984;2023-01-28T09:51:40;10.75;;;4.80;;
59390;SDS011;53405;57.012;40.984;2023-01-28T09:54:34;11.13;;;4.78;;
59390;SDS011;53405;57.012;40.984;2023-01-28T09:57:39;10.48;;;4.75;;
59390;SDS011;53405;57.012;40.984;2023-01-28T10:01:09;9.63;;;5.50;;
59390;SDS011;53405;57.012;40.984;2023-01-28T10:18:54;7.57;;;3.92;;
59390;SDS011;53405;57.012;40.984;2023-01-28T10:21:51;7.25;;;4.50;;
59390;SDS011;53405;57.012;40.984;2023-01-28T10:24:45;8.32;;;5.20;;
59390;SDS011;53405;57.012;40.984;2023-01-28T10:27:52;8.52;;;5.47;;
59390;SDS011;53405;57.012;40.984;2023-01-28T10:30:40;9.93;;;5.30;;
59390;SDS011;53405;57.012;40.984;2023-01-28T10:33:37;8.93;;;5.55;;
59390;SDS011;53405;57.012;40.984;2023-01-28T10:36:26;10.85;;;6.13;;
59390;SDS011;53405;57.012;40.984;2023-01-28T10:39:14;9.95;;;5.93;;
59390;SDS011;53405;57.012;40.984;2023-01-28T10:45:20;9.68;;;5.55;;
59390;SDS011;53405;57.012;40.984;2023-01-28T10:48:41;9.27;;;6.05;;
59390;SDS011;53405;57.012;40.984;2023-01-28T10:51:43;9.32;;;5.75;;
59390;SDS011;53405;57.012;40.984;2023-01-28T10:54:35;10.15;;;6.28;;
59390;SDS011;53405;57.012;40.984;2023-01-28T10:57:22;11.88;;;6.45;;
59390;SDS011;53405;57.012;40.984;2023-01-28T11:00:11;10.15;;;6.20;;
59390;SDS011;53405;57.012;40.984;2023-01-28T11:03:16;10.88;;;5.85;;
59390;SDS011;53405;57.012;40.984;2023-01-28T11:06:05;12.20;;;6.03;;
59390;SDS011;53405;57.012;40.984;2023-01-28T11:08:55;11.38;;;6.53;;
59390;SDS011;53405;57.012;40.984;2023-01-28T11:11:44;12.57;;;6.90;;
59390;SDS011;53405;57.012;40.984;2023-01-28T11:14:31;8.95;;;4.10;;
59390;SDS011;53405;57.012;40.984;2023-01-28T11:17:20;5.85;;;3.60;;
59390;SDS011;53405;57.012;40.984;2023-01-28T11:20:24;7.18;;;4.18;;
59390;SDS011;53405;57.012;40.984;2023-01-28T11:23:29;8.60;;;4.57;;
59390;SDS011;53405;57.012;40.984;2023-01-28T11:26:26;6.38;;;2.85;;
59390;SDS011;53405;57.012;40.984;2023-01-28T11:29:25;10.27;;;4.45;;
59390;SDS011;53405;57.012;40.984;2023-01-28T11:32:18;8.13;;;4.35;;
59390;SDS011;53405;57.012;40.984;2023-01-28T11:35:06;6.75;;;3.67;;
59390;SDS011;53405;57.012;40.984;2023-01-28T11:37:55;8.43;;;5.10;;
59390;SDS011;53405;57.012;40.984;2023-01-28T11:40:53;8.00;;;3.88;;
59390;SDS011;53405;57.012;40.984;2023-01-28T11:43:42;10.10;;;4.47;;
59390;SDS011;53405;57.012;40.984;2023-01-28T11:49:44;7.20;;;4.32;;
59390;SDS011;53405;57.012;40.984;2023-01-28T12:05:51;8.00;;;5.05;;
59390;SDS011;53405;57.012;40.984;2023-01-28T12:15:16;12.52;;;6.35;;
59390;SDS011;53405;57.012;40.984;2023-01-28T12:21:55;8.93;;;4.30;;
59390;SDS011;53405;57.012;40.984;2023-01-28T12:43:50;7.45;;;4.13;;
59390;SDS011;53405;57.012;40.984;2023-01-28T12:46:50;6.93;;;3.85;;
59390;SDS011;53405;57.012;40.984;2023-01-28T12:56:31;8.07;;;4.22;;
59390;SDS011;53405;57.012;40.984;2023-01-28T13:02:23;9.85;;;4.13;;
59390;SDS011;53405;57.012;40.984;2023-01-28T13:05:20;9.98;;;4.95;;
59390;SDS011;53405;57.012;40.984;2023-01-28T13:08:23;8.98;;;4.82;;
59390;SDS011;53405;57.012;40.984;2023-01-28T13:11:15;12.90;;;5.97;;
59390;SDS011;53405;57.012;40.984;2023-01-28T13:16:52;12.90;;;5.63;;
59390;SDS011;53405;57.012;40.984;2023-01-28T13:19:40;9.15;;;4.43;;
59390;SDS011;53405;57.012;40.984;2023-01-28T13:22:35;8.90;;;4.10;;
59390;SDS011;53405;57.012;40.984;2023-01-28T13:25:24;7.22;;;4.00;;
59390;SDS011;53405;57.012;40.984;2023-01-28T13:28:31;9.85;;;4.75;;
59390;SDS011;53405;57.012;40.984;2023-01-28T13:31:20;8.63;;;5.25;;
59390;SDS011;53405;57.012;40.984;2023-01-28T13:34:29;7.82;;;3.28;;
59390;SDS011;53405;57.012;40.984;2023-01-28T13:37:28;10.70;;;4.97;;
59390;SDS011;53405;57.012;40.984;2023-01-28T13:40:24;8.93;;;4.90;;
59390;SDS011;53405;57.012;40.984;2023-01-28T13:43:24;7.50;;;4.35;;
59390;SDS011;53405;57.012;40.984;2023-01-28T13:46:26;9.68;;;4.80;;
59390;SDS011;53405;57.012;40.984;2023-01-28T13:49:21;10.27;;;6.07;;
59390;SDS011;53405;57.012;40.984;2023-01-28T13:52:19;11.57;;;6.30;;
59390;SDS011;53405;57.012;40.984;2023-01-28T13:55:15;10.80;;;6.20;;
59390;SDS011;53405;57.012;40.984;2023-01-28T13:58:32;12.05;;;6.63;;
59390;SDS011;53405;57.012;40.984;2023-01-28T14:19:42;14.07;;;8.07;;
59390;SDS011;53405;57.012;40.984;2023-01-28T14:22:31;12.10;;;6.85;;
59390;SDS011;53405;57.012;40.984;2023-01-28T14:25:28;14.90;;;7.45;;
59390;SDS011;53405;57.012;40.984;2023-01-28T14:31:37;14.18;;;8.13;;
59390;SDS011;53405;57.012;40.984;2023-01-28T14:34:30;17.52;;;9.43;;
59390;SDS011;53405;57.012;40.984;2023-01-28T14:37:21;15.90;;;9.02;;
59390;SDS011;53405;57.012;40.984;2023-01-28T14:40:15;17.10;;;9.02;;
59390;SDS011;53405;57.012;40.984;2023-01-28T14:43:04;18.00;;;10.20;;
59390;SDS011;53405;57.012;40.984;2023-01-28T14:55:33;22.42;;;12.98;;
59390;SDS011;53405;57.012;40.984;2023-01-28T14:58:30;22.63;;;12.43;;
59390;SDS011;53405;57.012;40.984;2023-01-28T15:01:25;17.80;;;8.85;;
59390;SDS011;53405;57.012;40.984;2023-01-28T15:04:30;19.67;;;10.85;;
59390;SDS011;53405;57.012;40.984;2023-01-28T15:07:23;18.67;;;10.77;;
59390;SDS011;53405;57.012;40.984;2023-01-28T15:10:16;19.58;;;10.00;;
59390;SDS011;53405;57.012;40.984;2023-01-28T15:13:07;20.63;;;10.18;;
59390;SDS011;53405;57.012;40.984;2023-01-28T15:16:01;17.55;;;8.80;;
59390;SDS011;53405;57.012;40.984;2023-01-28T15:18:49;23.35;;;13.20;;
59390;SDS011;53405;57.012;40.984;2023-01-28T15:21:37;18.95;;;10.00;;
59390;SDS011;53405;57.012;40.984;2023-01-28T15:24:25;16.92;;;8.80;;
59390;SDS011;53405;57.012;40.984;2023-01-28T15:27:14;15.15;;;8.48;;
59390;SDS011;53405;57.012;40.984;2023-01-28T15:30:23;20.27;;;10.60;;
59390;SDS011;53405;57.012;40.984;2023-01-28T15:33:14;17.60;;;9.70;;
59390;SDS011;53405;57.012;40.984;2023-01-28T15:36:03;14.88;;;7.35;;
59390;SDS011;53405;57.012;40.984;2023-01-28T15:38:52;15.27;;;7.53;;
59390;SDS011;53405;57.012;40.984;2023-01-28T15:41:41;14.52;;;7.18;;
59390;SDS011;53405;57.012;40.984;2023-01-28T15:44:34;15.23;;;7.70;;
59390;SDS011;53405;57.012;40.984;2023-01-28T15:47:25;16.50;;;7.28;;
59390;SDS011;53405;57.012;40.984;2023-01-28T15:50:22;16.77;;;8.35;;
59390;SDS011;53405;57.012;40.984;2023-01-28T15:53:12;13.43;;;5.90;;
59390;SDS011;53405;57.012;40.984;2023-01-28T15:56:05;13.75;;;6.78;;
59390;SDS011;53405;57.012;40.984;2023-01-28T16:02:19;15.00;;;6.80;;
59390;SDS011;53405;57.012;40.984;2023-01-28T16:05:30;15.23;;;7.50;;
59390;SDS011;53405;57.012;40.984;2023-01-28T16:08:25;16.63;;;7.68;;
59390;SDS011;53405;57.012;40.984;2023-01-28T16:11:22;17.10;;;7.47;;
59390;SDS011;53405;57.012;40.984;2023-01-28T16:14:48;14.77;;;6.68;;
59390;SDS011;53405;57.012;40.984;2023-01-28T16:17:30;11.82;;;5.97;;
59390;SDS011;53405;57.012;40.984;2023-01-28T16:20:26;14.43;;;6.45;;
59390;SDS011;53405;57.012;40.984;2023-01-28T16:23:20;17.35;;;7.72;;
59390;SDS011;53405;57.012;40.984;2023-01-28T16:26:21;16.40;;;7.68;;
59390;SDS011;53405;57.012;40.984;2023-01-28T16:29:13;14.10;;;7.15;;
59390;SDS011;53405;57.012;40.984;2023-01-28T16:32:26;17.88;;;8.40;;
59390;SDS011;53405;57.012;40.984;2023-01-28T16:35:23;19.95;;;9.63;;
59390;SDS011;53405;57.012;40.984;2023-01-28T16:38:23;17.77;;;8.73;;
59390;SDS011;53405;57.012;40.984;2023-01-28T16:41:21;19.17;;;9.50;;
59390;SDS011;53405;57.012;40.984;2023-01-28T16:44:13;15.15;;;7.57;;
59390;SDS011;53405;57.012;40.984;2023-01-28T16:47:03;17.15;;;7.80;;
59390;SDS011;53405;57.012;40.984;2023-01-28T16:49:51;14.73;;;7.95;;
59390;SDS011;53405;57.012;40.984;2023-01-28T16:52:40;15.90;;;6.95;;
59390;SDS011;53405;57.012;40.984;2023-01-28T16:55:29;61.65;;;25.02;;
59390;SDS011;53405;57.012;40.984;2023-01-28T16:58:18;11.93;;;5.53;;
59390;SDS011;53405;57.012;40.984;2023-01-28T17:01:09;12.30;;;5.78;;
59390;SDS011;53405;57.012;40.984;2023-01-28T17:03:58;13.23;;;7.07;;
59390;SDS011;53405;57.012;40.984;2023-01-28T17:06:45;14.95;;;7.45;;
59390;SDS011;53405;57.012;40.984;2023-01-28T17:09:33;12.13;;;7.10;;
59390;SDS011;53405;57.012;40.984;2023-01-28T17:12:20;13.85;;;6.97;;
59390;SDS011;53405;57.012;40.984;2023-01-28T17:15:08;13.32;;;7.03;;
59390;SDS011;53405;57.012;40.984;2023-01-28T17:17:56;12.70;;;7.05;;
59390;SDS011;53405;57.012;40.984;2023-01-28T17:20:43;10.43;;;4.95;;
59390;SDS011;53405;57.012;40.984;2023-01-28T17:23:31;11.63;;;5.88;;
59390;SDS011;53405;57.012;40.984;2023-01-28T17:26:22;10.90;;;6.38;;
59390;SDS011;53405;57.012;40.984;2023-01-28T17:29:09;10.23;;;4.32;;
59390;SDS011;53405;57.012;40.984;2023-01-28T17:31:57;9.07;;;4.63;;
59390;SDS011;53405;57.012;40.984;2023-01-28T17:34:48;6.00;;;2.80;;
59390;SDS011;53405;57.012;40.984;2023-01-28T17:37:35;6.93;;;3.25;;
59390;SDS011;53405;57.012;40.984;2023-01-28T17:40:27;6.78;;;3.75;;
59390;SDS011;53405;57.012;40.984;2023-01-28T17:43:15;8.85;;;4.60;;
59390;SDS011;53405;57.012;40.984;2023-01-28T17:46:09;8.00;;;4.10;;
59390;SDS011;53405;57.012;40.984;2023-01-28T17:49:00;8.23;;;4.20;;
59390;SDS011;53405;57.012;40.984;2023-01-28T17:51:48;11.27;;;5.25;;
59390;SDS011;53405;57.012;40.984;2023-01-28T17:54:37;13.45;;;6.22;;
59390;SDS011;53405;57.012;40.984;2023-01-28T17:57:25;12.50;;;6.28;;
59390;SDS011;53405;57.012;40.984;2023-01-28T18:00:13;13.38;;;7.55;;
59390;SDS011;53405;57.012;40.984;2023-01-28T18:03:01;13.77;;;7.53;;
59390;SDS011;53405;57.012;40.984;2023-01-28T18:05:57;14.95;;;7.47;;
59390;SDS011;53405;57.012;40.984;2023-01-28T18:08:46;14.10;;;6.80;;
59390;SDS011;53405;57.012;40.984;2023-01-28T18:11:34;14.73;;;7.40;;
59390;SDS011;53405;57.012;40.984;2023-01-28T18:14:21;16.92;;;8.02;;
59390;SDS011;53405;57.012;40.984;2023-01-28T18:17:09;14.13;;;7.50;;
59390;SDS011;53405;57.012;40.984;2023-01-28T18:19:57;16.10;;;7.40;;
59390;SDS011;53405;57.012;40.984;2023-01-28T18:22:45;15.73;;;7.63;;
59390;SDS011;53405;57.012;40.984;2023-01-28T18:25:35;14.68;;;6.55;;
59390;SDS011;53405;57.012;40.984;2023-01-28T18:28:23;13.82;;;7.32;;
59390;SDS011;53405;57.012;40.984;2023-01-28T18:31:11;13.38;;;6.63;;
59390;SDS011;53405;57.012;40.984;2023-01-28T18:34:01;10.55;;;6.15;;
59390;SDS011;53405;57.012;40.984;2023-01-28T18:36:49;14.65;;;6.30;;
59390;SDS011;53405;57.012;40.984;2023-01-28T18:39:37;12.65;;;6.38;;
59390;SDS011;53405;57.012;40.984;2023-01-28T18:42:25;9.63;;;5.18;;
59390;SDS011;53405;57.012;40.984;2023-01-28T18:45:13;9.15;;;4.68;;
59390;SDS011;53405;57.012;40.984;2023-01-28T18:48:01;9.43;;;4.80;;
59390;SDS011;53405;57.012;40.984;2023-01-28T18:50:49;11.65;;;5.75;;
59390;SDS011;53405;57.012;40.984;2023-01-28T18:53:39;10.27;;;5.18;;
59390;SDS011;53405;57.012;40.984;2023-01-28T18:56:27;13.10;;;5.75;;
59390;SDS011;53405;57.012;40.984;2023-01-28T18:59:16;12.10;;;5.03;;
59390;SDS011;53405;57.012;40.984;2023-01-28T19:02:03;9.57;;;5.20;;
59390;SDS011;53405;57.012;40.984;2023-01-28T19:04:51;11.73;;;5.32;;
59390;SDS011;53405;57.012;40.984;2023-01-28T19:07:41;12.15;;;6.13;;
59390;SDS011;53405;57.012;40.984;2023-01-28T19:10:28;9.73;;;5.00;;
59390;SDS011;53405;57.012;40.984;2023-01-28T19:13:16;10.23;;;5.05;;
59390;SDS011;53405;57.012;40.984;2023-01-28T19:16:04;10.10;;;4.80;;
59390;SDS011;53405;57.012;40.984;2023-01-28T19:18:56;12.35;;;5.60;;
59390;SDS011;53405;57.012;40.984;2023-01-28T19:21:45;11.95;;;4.32;;
59390;SDS011;53405;57.012;40.984;2023-01-28T19:24:33;10.10;;;4.63;;